Marschenland — ONES — position and weather

sailwx.info

Track history (hours):
 
Tides and Currents Weather Stations Pressure Air Temp Water Temp Dewpoint Dewpoint Depression Visibility Wind Speed Wind Dir Waves Ship Positions

Marschenland

Last reported at 2018-Apr-19 08:47 UTC. Time now 2018-Jul-16 22:15 UTC.
Position N 54°51' E 013°27'.
Warning: this ship's position is months out of date.

Length 75 m; draft 3.5 m.

Type: Cargo ship. MMSI: 205489000.

Date/timePositionNaut miles runAvg speedWind from/ knotsBaromVisibWave heightAir tempDewpointWater temp
2018-Apr-19 08:47N 54°51' E 013°27'31 9.9
2018-Apr-19 05:40N 55°14' E 012°53'1 9.2
2018-Apr-19 05:30N 55°15' E 012°51'5 9.4
2018-Apr-19 05:00N 55°16' E 012°42'4 7.8
2018-Apr-19 04:30N 55°19' E 012°37'5 9.3
2018-Apr-19 04:00N 55°23' E 012°39'4 8.8
2018-Apr-19 03:30N 55°27' E 012°41'4 8.3
2018-Apr-19 03:00N 55°31' E 012°44'5 9.5
2018-Apr-19 02:31N 55°35' E 012°50'5 9.6
2018-Apr-19 02:01N 55°38' E 012°55'4 7.8
2018-Apr-19 01:30N 55°42' E 012°54'4 9.1
2018-Apr-19 01:00N 55°46' E 012°49'5 9.9
2018-Apr-19 00:31N 55°49' E 012°44'5 9.1
2018-Apr-19 00:00N 55°53' E 012°39'4 8.4
2018-Apr-18 23:31N 55°57' E 012°37'5 9.1
2018-Apr-18 23:01N 56°02' E 012°38'510.0
2018-Apr-18 22:31N 56°06' E 012°34'  
2018-Apr-13 15:28N 56°06' E 012°35'511.4
2018-Apr-13 15:00N 56°02' E 012°41'510.0
2018-Apr-13 14:30N 55°57' E 012°43'5 9.8
2018-Apr-13 14:00N 55°52' E 012°44'5 9.6
2018-Apr-13 13:31N 55°48' E 012°47'510.2
2018-Apr-13 13:00N 55°44' E 012°52'5 9.8
2018-Apr-13 12:30N 55°39' E 012°57'4 8.5
2018-Apr-13 12:00N 55°36' E 012°52'5 9.9
2018-Apr-13 11:30N 55°32' E 012°46'5 9.2
2018-Apr-13 11:00N 55°28' E 012°43'5 9.1
2018-Apr-13 10:29N 55°24' E 012°42'4 8.9
2018-Apr-13 10:00N 55°19' E 012°40'4 7.1
2018-Apr-13 09:30N 55°16' E 012°40'4 8.0
2018-Apr-13 09:00N 55°12' E 012°40'4 7.7
2018-Apr-13 08:28N 55°08' E 012°40'44 6.8
2018-Apr-13 01:58N 54°26' E 012°13'3 7.6
2018-Apr-13 01:30N 54°24' E 012°09'11 7.1
2018-Apr-12 23:58N 54°19' E 011°52'4 8.4
2018-Apr-12 23:30N 54°17' E 011°47'4 8.6
2018-Apr-12 23:00N 54°14' E 011°42'13 8.0
2018-Apr-12 21:21N 54°04' E 011°27'3 8.6
2018-Apr-12 21:00N 54°02' E 011°23'3 6.9
2018-Apr-12 20:30N 53°59' E 011°20'4 8.7
2018-Apr-12 20:00N 53°56' E 011°25'2 3.5
2018-Apr-12 19:26N 53°54' E 011°28'0 0.0
2018-Apr-12 18:59N 53°54' E 011°28'0 0.0
2018-Apr-12 18:29N 53°54' E 011°28'0 0.0
2018-Apr-12 17:59N 53°54' E 011°28'0 0.0
2018-Apr-12 17:29N 53°54' E 011°28'0 0.0
2018-Apr-12 16:56N 53°54' E 011°28'0 0.0
2018-Apr-12 16:29N 53°54' E 011°28'0 0.0
2018-Apr-12 15:59N 53°54' E 011°28'0 0.0
2018-Apr-12 15:29N 53°54' E 011°28'0 0.0
2018-Apr-12 14:59N 53°54' E 011°28'0 0.0
2018-Apr-12 14:26N 53°54' E 011°28'0 0.0
2018-Apr-12 13:56N 53°54' E 011°28'0 0.0
2018-Apr-12 13:29N 53°54' E 011°28'0 0.0
2018-Apr-12 12:59N 53°54' E 011°28'0 0.0
2018-Apr-12 12:29N 53°54' E 011°28'0 0.0
2018-Apr-12 11:56N 53°54' E 011°28'0 0.0
2018-Apr-12 11:23N 53°54' E 011°28'0 0.0
2018-Apr-12 10:59N 53°54' E 011°28'0 0.0
2018-Apr-12 10:29N 53°54' E 011°28'0 0.0
2018-Apr-12 09:59N 53°54' E 011°28'0 0.0
2018-Apr-12 09:29N 53°54' E 011°28'0 0.0
2018-Apr-12 08:59N 53°54' E 011°28'0 0.0
2018-Apr-12 08:29N 53°54' E 011°28'0 0.0
2018-Apr-12 07:59N 53°54' E 011°28'0 0.0
2018-Apr-12 07:29N 53°54' E 011°28'0 0.0
2018-Apr-12 06:59N 53°54' E 011°28'0 0.0
2018-Apr-12 06:29N 53°54' E 011°28'0 0.0
2018-Apr-12 05:59N 53°54' E 011°28'0 0.8
2018-Apr-12 05:30N 53°54' E 011°27'4 8.5
2018-Apr-12 05:00N 53°58' E 011°23'4 7.5
2018-Apr-12 04:30N 54°01' E 011°23'4 6.3
2018-Apr-12 03:56N 54°04' E 011°27'21 6.1
2018-Apr-12 00:31N 54°24' E 011°22'1 6.2
2018-Apr-12 00:24N 54°25' E 011°22'2 5.9
2018-Apr-12 00:00N 54°27' E 011°22'3 6.0
2018-Apr-11 23:30N 54°30' E 011°21'3 6.1
2018-Apr-11 23:00N 54°33' E 011°18'3 6.2
2018-Apr-11 22:30N 54°34' E 011°13'3 6.3
2018-Apr-11 22:00N 54°35' E 011°08'3 6.1
2018-Apr-11 21:30N 54°35' E 011°03'3 5.8
2018-Apr-11 21:00N 54°35' E 010°58'3 5.9
2018-Apr-11 20:30N 54°35' E 010°53'3 5.9
2018-Apr-11 20:00N 54°34' E 010°47'3 5.7
2018-Apr-11 19:30N 54°34' E 010°43'3 5.9
2018-Apr-11 19:00N 54°34' E 010°38'3 5.7
2018-Apr-11 18:28N 54°33' E 010°33'27 5.2
2018-Apr-11 13:17N 54°22' E 009°50'2 8.1
2018-Apr-11 13:00N 54°21' E 009°47'4 8.0
2018-Apr-11 12:30N 54°18' E 009°42'4 7.6
2018-Apr-11 12:00N 54°16' E 009°37'3 5.7
2018-Apr-11 11:30N 54°13' E 009°36'3 6.8
2018-Apr-11 11:00N 54°11' E 009°31'4 7.4
2018-Apr-11 10:30N 54°10' E 009°25'6 7.6
2018-Apr-11 09:46N 54°05' E 009°19'2 8.5
2018-Apr-11 09:30N 54°03' E 009°18'4 8.4
2018-Apr-11 09:00N 53°59' E 009°17'5 9.1
2018-Apr-11 08:30N 53°55' E 009°12'2 4.3
2018-Apr-11 08:00N 53°54' E 009°09'0 0.0
2018-Apr-11 07:30N 53°54' E 009°09'0 0.7
2018-Apr-11 07:00N 53°54' E 009°09'0 0.2
2018-Apr-11 06:30N 53°54' E 009°09'1 1.1
2018-Apr-11 06:00N 53°53' E 009°08'1 2.4
2018-Apr-11 05:30N 53°53' E 009°06'4 7.6
2018-Apr-11 05:00N 53°51' E 009°00'4 8.8
2018-Apr-11 04:30N 53°50' E 008°53'4 8.0
2018-Apr-11 04:01N 53°51' E 008°46'1 0.2
2018-Apr-10 21:15N 53°51' E 008°45'0 0.1
2018-Apr-10 20:51N 53°51' E 008°45'0 0.0
2018-Apr-10 20:27N 53°51' E 008°45'0 0.0
2018-Apr-10 20:00N 53°51' E 008°45'0 0.0
2018-Apr-10 19:30N 53°51' E 008°45'0 0.0
2018-Apr-10 18:57N 53°51' E 008°45'0 0.0
2018-Apr-10 18:27N 53°51' E 008°45'0 0.0
2018-Apr-10 17:51N 53°51' E 008°45'0 0.0
2018-Apr-10 17:21N 53°51' E 008°45'0 0.0
2018-Apr-10 16:48N 53°51' E 008°45'0 0.0
2018-Apr-10 16:21N 53°51' E 008°45'0 0.0
2018-Apr-10 15:51N 53°51' E 008°45'0 0.0
2018-Apr-10 15:27N 53°51' E 008°45'0 0.0
2018-Apr-10 14:09N 53°51' E 008°45'0 0.0
2018-Apr-10 13:54N 53°51' E 008°45'0 0.0
2018-Apr-10 13:27N 53°51' E 008°45'0 0.0
2018-Apr-10 12:57N 53°51' E 008°45'0 0.0
2018-Apr-10 11:39N 53°51' E 008°45'0 0.1
2018-Apr-10 11:27N 53°51' E 008°45'0 0.0
2018-Apr-10 10:57N 53°51' E 008°45'0 0.0
2018-Apr-10 10:18N 53°51' E 008°45'0 0.0
2018-Apr-10 10:00N 53°51' E 008°45'0 0.0
2018-Apr-10 09:27N 53°51' E 008°45'0 0.0
2018-Apr-10 08:57N 53°51' E 008°45'0 0.0
2018-Apr-10 08:21N 53°51' E 008°45'0 0.0
2018-Apr-10 08:00N 53°51' E 008°45'0 0.0
2018-Apr-10 07:21N 53°51' E 008°45'0 0.1
2018-Apr-10 07:00N 53°51' E 008°45'0 0.0
2018-Apr-10 06:21N 53°51' E 008°45'0 0.0
2018-Apr-10 06:00N 53°51' E 008°45'0 0.0
2018-Apr-10 05:27N 53°51' E 008°45'0 0.0
2018-Apr-10 04:51N 53°51' E 008°45'0 0.0
2018-Apr-09 21:16N 53°51' E 008°45'0 0.0
2018-Apr-09 20:25N 53°51' E 008°45'0 0.0
2018-Apr-09 19:34N 53°51' E 008°45'0 0.1
2018-Apr-09 19:28N 53°51' E 008°45'0 0.0
2018-Apr-09 18:58N 53°51' E 008°45'0 0.0
2018-Apr-09 18:22N 53°51' E 008°45'0 0.0
2018-Apr-09 17:52N 53°51' E 008°45'0 0.0
2018-Apr-09 17:25N 53°51' E 008°45'0 0.0
2018-Apr-09 16:58N 53°51' E 008°45'0 0.0
2018-Apr-09 16:28N 53°51' E 008°45'0 0.0
2018-Apr-09 15:58N 53°51' E 008°45'0 0.0
2018-Apr-09 15:28N 53°51' E 008°45'0 0.0
2018-Apr-09 14:52N 53°51' E 008°45'0 0.0
2018-Apr-09 14:28N 53°51' E 008°45'0 0.0
2018-Apr-09 13:58N 53°51' E 008°45'0 0.0
2018-Apr-09 11:58N 53°51' E 008°45'0 0.0
2018-Apr-09 11:28N 53°51' E 008°45'0 0.0
2018-Apr-09 10:52N 53°51' E 008°45'0 0.0
2018-Apr-09 09:43N 53°51' E 008°45'0 0.0
2018-Apr-09 09:19N 53°51' E 008°45'0 0.0
2018-Apr-09 08:58N 53°51' E 008°45'  
Track history (hours):
 
Tides and Currents Weather Stations Pressure Air Temp Water Temp Dewpoint Dewpoint Depression Visibility Wind Speed Wind Dir Waves Ship Positions

Marschenland

Last reported at 2018-Apr-19 08:47 UTC. Time now 2018-Jul-16 22:15 UTC.
Position N 54°51' E 013°27'.
Warning: this ship's position is months out of date.

Length 75 m; draft 3.5 m.

Type: Cargo ship. MMSI: 205489000.

Date/timePositionNaut miles runAvg speedWind from/ knotsBaromVisibWave heightAir tempDewpointWater temp
2018-Apr-19 08:47N 54°51' E 013°27'31 9.9
2018-Apr-19 05:40N 55°14' E 012°53'1 9.2
2018-Apr-19 05:30N 55°15' E 012°51'5 9.4
2018-Apr-19 05:00N 55°16' E 012°42'4 7.8
2018-Apr-19 04:30N 55°19' E 012°37'5 9.3
2018-Apr-19 04:00N 55°23' E 012°39'4 8.8
2018-Apr-19 03:30N 55°27' E 012°41'4 8.3
2018-Apr-19 03:00N 55°31' E 012°44'5 9.5
2018-Apr-19 02:31N 55°35' E 012°50'5 9.6
2018-Apr-19 02:01N 55°38' E 012°55'4 7.8
2018-Apr-19 01:30N 55°42' E 012°54'4 9.1
2018-Apr-19 01:00N 55°46' E 012°49'5 9.9
2018-Apr-19 00:31N 55°49' E 012°44'5 9.1
2018-Apr-19 00:00N 55°53' E 012°39'4 8.4
2018-Apr-18 23:31N 55°57' E 012°37'5 9.1
2018-Apr-18 23:01N 56°02' E 012°38'510.0
2018-Apr-18 22:31N 56°06' E 012°34'  
2018-Apr-13 15:28N 56°06' E 012°35'511.4
2018-Apr-13 15:00N 56°02' E 012°41'510.0
2018-Apr-13 14:30N 55°57' E 012°43'5 9.8
2018-Apr-13 14:00N 55°52' E 012°44'5 9.6
2018-Apr-13 13:31N 55°48' E 012°47'510.2
2018-Apr-13 13:00N 55°44' E 012°52'5 9.8
2018-Apr-13 12:30N 55°39' E 012°57'4 8.5
2018-Apr-13 12:00N 55°36' E 012°52'5 9.9
2018-Apr-13 11:30N 55°32' E 012°46'5 9.2
2018-Apr-13 11:00N 55°28' E 012°43'5 9.1
2018-Apr-13 10:29N 55°24' E 012°42'4 8.9
2018-Apr-13 10:00N 55°19' E 012°40'4 7.1
2018-Apr-13 09:30N 55°16' E 012°40'4 8.0
2018-Apr-13 09:00N 55°12' E 012°40'4 7.7
2018-Apr-13 08:28N 55°08' E 012°40'44 6.8
2018-Apr-13 01:58N 54°26' E 012°13'3 7.6
2018-Apr-13 01:30N 54°24' E 012°09'11 7.1
2018-Apr-12 23:58N 54°19' E 011°52'4 8.4
2018-Apr-12 23:30N 54°17' E 011°47'4 8.6
2018-Apr-12 23:00N 54°14' E 011°42'13 8.0
2018-Apr-12 21:21N 54°04' E 011°27'3 8.6
2018-Apr-12 21:00N 54°02' E 011°23'3 6.9
2018-Apr-12 20:30N 53°59' E 011°20'4 8.7
2018-Apr-12 20:00N 53°56' E 011°25'2 3.5
2018-Apr-12 19:26N 53°54' E 011°28'0 0.0
2018-Apr-12 18:59N 53°54' E 011°28'0 0.0
2018-Apr-12 18:29N 53°54' E 011°28'0 0.0
2018-Apr-12 17:59N 53°54' E 011°28'0 0.0
2018-Apr-12 17:29N 53°54' E 011°28'0 0.0
2018-Apr-12 16:56N 53°54' E 011°28'0 0.0
2018-Apr-12 16:29N 53°54' E 011°28'0 0.0
2018-Apr-12 15:59N 53°54' E 011°28'0 0.0
2018-Apr-12 15:29N 53°54' E 011°28'0 0.0
2018-Apr-12 14:59N 53°54' E 011°28'0 0.0
2018-Apr-12 14:26N 53°54' E 011°28'0 0.0
2018-Apr-12 13:56N 53°54' E 011°28'0 0.0
2018-Apr-12 13:29N 53°54' E 011°28'0 0.0
2018-Apr-12 12:59N 53°54' E 011°28'0 0.0
2018-Apr-12 12:29N 53°54' E 011°28'0 0.0
2018-Apr-12 11:56N 53°54' E 011°28'0 0.0
2018-Apr-12 11:23N 53°54' E 011°28'0 0.0
2018-Apr-12 10:59N 53°54' E 011°28'0 0.0
2018-Apr-12 10:29N 53°54' E 011°28'0 0.0
2018-Apr-12 09:59N 53°54' E 011°28'0 0.0
2018-Apr-12 09:29N 53°54' E 011°28'0 0.0
2018-Apr-12 08:59N 53°54' E 011°28'0 0.0
2018-Apr-12 08:29N 53°54' E 011°28'0 0.0
2018-Apr-12 07:59N 53°54' E 011°28'0 0.0
2018-Apr-12 07:29N 53°54' E 011°28'0 0.0
2018-Apr-12 06:59N 53°54' E 011°28'0 0.0
2018-Apr-12 06:29N 53°54' E 011°28'0 0.0
2018-Apr-12 05:59N 53°54' E 011°28'0 0.8
2018-Apr-12 05:30N 53°54' E 011°27'4 8.5
2018-Apr-12 05:00N 53°58' E 011°23'4 7.5
2018-Apr-12 04:30N 54°01' E 011°23'4 6.3
2018-Apr-12 03:56N 54°04' E 011°27'21 6.1
2018-Apr-12 00:31N 54°24' E 011°22'1 6.2
2018-Apr-12 00:24N 54°25' E 011°22'2 5.9
2018-Apr-12 00:00N 54°27' E 011°22'3 6.0
2018-Apr-11 23:30N 54°30' E 011°21'3 6.1
2018-Apr-11 23:00N 54°33' E 011°18'3 6.2
2018-Apr-11 22:30N 54°34' E 011°13'3 6.3
2018-Apr-11 22:00N 54°35' E 011°08'3 6.1
2018-Apr-11 21:30N 54°35' E 011°03'3 5.8
2018-Apr-11 21:00N 54°35' E 010°58'3 5.9
2018-Apr-11 20:30N 54°35' E 010°53'3 5.9
2018-Apr-11 20:00N 54°34' E 010°47'3 5.7
2018-Apr-11 19:30N 54°34' E 010°43'3 5.9
2018-Apr-11 19:00N 54°34' E 010°38'3 5.7
2018-Apr-11 18:28N 54°33' E 010°33'27 5.2
2018-Apr-11 13:17N 54°22' E 009°50'2 8.1
2018-Apr-11 13:00N 54°21' E 009°47'4 8.0
2018-Apr-11 12:30N 54°18' E 009°42'4 7.6
2018-Apr-11 12:00N 54°16' E 009°37'3 5.7
2018-Apr-11 11:30N 54°13' E 009°36'3 6.8
2018-Apr-11 11:00N 54°11' E 009°31'4 7.4
2018-Apr-11 10:30N 54°10' E 009°25'6 7.6
2018-Apr-11 09:46N 54°05' E 009°19'2 8.5
2018-Apr-11 09:30N 54°03' E 009°18'4 8.4
2018-Apr-11 09:00N 53°59' E 009°17'5 9.1
2018-Apr-11 08:30N 53°55' E 009°12'2 4.3
2018-Apr-11 08:00N 53°54' E 009°09'0 0.0
2018-Apr-11 07:30N 53°54' E 009°09'0 0.7
2018-Apr-11 07:00N 53°54' E 009°09'0 0.2
2018-Apr-11 06:30N 53°54' E 009°09'1 1.1
2018-Apr-11 06:00N 53°53' E 009°08'1 2.4
2018-Apr-11 05:30N 53°53' E 009°06'4 7.6
2018-Apr-11 05:00N 53°51' E 009°00'4 8.8
2018-Apr-11 04:30N 53°50' E 008°53'4 8.0
2018-Apr-11 04:01N 53°51' E 008°46'1 0.2
2018-Apr-10 21:15N 53°51' E 008°45'0 0.1
2018-Apr-10 20:51N 53°51' E 008°45'0 0.0
2018-Apr-10 20:27N 53°51' E 008°45'0 0.0
2018-Apr-10 20:00N 53°51' E 008°45'0 0.0
2018-Apr-10 19:30N 53°51' E 008°45'0 0.0
2018-Apr-10 18:57N 53°51' E 008°45'0 0.0
2018-Apr-10 18:27N 53°51' E 008°45'0 0.0
2018-Apr-10 17:51N 53°51' E 008°45'0 0.0
2018-Apr-10 17:21N 53°51' E 008°45'0 0.0
2018-Apr-10 16:48N 53°51' E 008°45'0 0.0
2018-Apr-10 16:21N 53°51' E 008°45'0 0.0
2018-Apr-10 15:51N 53°51' E 008°45'0 0.0
2018-Apr-10 15:27N 53°51' E 008°45'0 0.0
2018-Apr-10 14:09N 53°51' E 008°45'0 0.0
2018-Apr-10 13:54N 53°51' E 008°45'0 0.0
2018-Apr-10 13:27N 53°51' E 008°45'0 0.0
2018-Apr-10 12:57N 53°51' E 008°45'0 0.0
2018-Apr-10 11:39N 53°51' E 008°45'0 0.1
2018-Apr-10 11:27N 53°51' E 008°45'0 0.0
2018-Apr-10 10:57N 53°51' E 008°45'0 0.0
2018-Apr-10 10:18N 53°51' E 008°45'0 0.0
2018-Apr-10 10:00N 53°51' E 008°45'0 0.0
2018-Apr-10 09:27N 53°51' E 008°45'0 0.0
2018-Apr-10 08:57N 53°51' E 008°45'0 0.0
2018-Apr-10 08:21N 53°51' E 008°45'0 0.0
2018-Apr-10 08:00N 53°51' E 008°45'0 0.0
2018-Apr-10 07:21N 53°51' E 008°45'0 0.1
2018-Apr-10 07:00N 53°51' E 008°45'0 0.0
2018-Apr-10 06:21N 53°51' E 008°45'0 0.0
2018-Apr-10 06:00N 53°51' E 008°45'0 0.0
2018-Apr-10 05:27N 53°51' E 008°45'0 0.0
2018-Apr-10 04:51N 53°51' E 008°45'0 0.0
2018-Apr-09 21:16N 53°51' E 008°45'0 0.0
2018-Apr-09 20:25N 53°51' E 008°45'0 0.0
2018-Apr-09 19:34N 53°51' E 008°45'0 0.1
2018-Apr-09 19:28N 53°51' E 008°45'0 0.0
2018-Apr-09 18:58N 53°51' E 008°45'0 0.0
2018-Apr-09 18:22N 53°51' E 008°45'0 0.0
2018-Apr-09 17:52N 53°51' E 008°45'0 0.0
2018-Apr-09 17:25N 53°51' E 008°45'0 0.0
2018-Apr-09 16:58N 53°51' E 008°45'0 0.0
2018-Apr-09 16:28N 53°51' E 008°45'0 0.0
2018-Apr-09 15:58N 53°51' E 008°45'0 0.0
2018-Apr-09 15:28N 53°51' E 008°45'0 0.0
2018-Apr-09 14:52N 53°51' E 008°45'0 0.0
2018-Apr-09 14:28N 53°51' E 008°45'0 0.0
2018-Apr-09 13:58N 53°51' E 008°45'0 0.0
2018-Apr-09 11:58N 53°51' E 008°45'0 0.0
2018-Apr-09 11:28N 53°51' E 008°45'0 0.0
2018-Apr-09 10:52N 53°51' E 008°45'0 0.0
2018-Apr-09 09:43N 53°51' E 008°45'0 0.0
2018-Apr-09 09:19N 53°51' E 008°45'0 0.0
2018-Apr-09 08:58N 53°51' E 008°45'  

Dump ship's entire track history